Latest Coastal Weather Observations for Larapuna (Eddystone Point)

IDT60701

Issued at 4:52 am EDT Sunday 25 October 2020 (issued every 10 minutes, with the page automatically refreshed every 10 minutes)

About coastal observations | Map of coastal stations | Coastal observations for TAS | Marine services | Other Formats
Station Details ID: 092045 Name: LARAPUNA (EDDYSTONE POINT) Lat: -40.99 Lon: 148.35 Height: 19.7 m
Data from the previous 72 hours. | See also: Recent months at Larapuna (Eddystone Point)
Date/Time
EDT
Wind Sea
Height
m
Swell Vis
km
Cloud Weather Temp
°C
Press
MSL
hPa
Rain since
9am
mm
Dir  Spd
kts
Gust
kts
Height
m
Period
s
Dir
25/04:30am S 29 36 - - - - - - - 7.8 1014.5 9.4
25/04:21am S 30 40 - - - - - - - 7.9 1014.2 9.4
25/04:00am S 32 38 - - - - - - - 8.1 1013.9 9.4
25/03:30am S 32 39 - - - - - - - 7.9 1013.4 9.4
25/03:00am S 31 38 - - - - - - - 8.2 1012.6 9.2
25/02:30am S 32 37 - - - - - - - 8.4 1012.0 9.2
25/02:00am S 32 39 - - - - - - - 8.6 1011.8 9.2
25/01:30am S 33 45 - - - - - - - 8.0 1011.7 9.2
25/01:27am S 33 45 - - - - - - - 7.8 1011.6 9.2
25/01:00am S 34 42 - - - - - - - 8.0 1011.1 8.8
25/12:30am S 36 43 - - - - - - - 8.8 1010.5 8.2
25/12:00am SSE 31 40 - - - - - - Recent precip. 9.0 1009.6 8.2
 
Date/Time
EDT
Wind Sea
Height
m
Swell Vis
km
Cloud Weather Temp
°C
Press
MSL
hPa
Rain since
9am
mm
Dir  Spd
kts
Gust
kts
Height
m
Period
s
Dir
24/11:30pm SSE 24 33 - - - - - - - 10.1 1009.3 8.2
24/11:28pm SSE 21 33 - - - - - - - 9.9 1009.2 8.2
24/11:25pm SSE 17 30 - - - - - - - 10.2 1009.3 8.2
24/11:00pm SSE 16 18 - - - - - - - 10.1 1009.1 8.0
24/10:30pm SSE 23 27 - - - - - - - 9.2 1009.1 7.8
24/10:18pm SE 15 26 - - - - - - - 10.1 1009.1 7.6
24/10:00pm SE 13 17 - - - - - - - 10.9 1008.7 7.2
24/09:30pm ESE 13 17 - - - - - - - 10.6 1008.3 6.6
24/09:00pm ESE 13 16 - - - - - - Recent precip. 10.7 1007.7 6.6
24/08:30pm ESE 12 15 - - - - - - - 10.4 1007.1 6.4
24/08:00pm SE 10 13 - - - - - - - 10.4 1006.7 5.6
24/07:30pm SE 11 14 - - - - - - - 10.5 1005.9 5.2
24/07:00pm SSE 13 17 - - - - - - - 10.9 1005.7 2.8
24/06:30pm SE 13 17 - - - - - - - 11.0 1005.2 2.2
24/06:00pm SSE 13 15 - - - - - - Rain 11.4 1004.8 1.8
24/05:30pm E 4 6 - - - - - - - 12.9 1004.4 0.6
24/05:00pm ENE 9 10 - - - - - - - 13.4 1004.0 0.4
24/04:30pm E 7 8 - - - - - - - 13.9 1003.7 0.4
24/04:00pm E 7 9 - - - - - - - 14.6 1003.5 0.4
24/03:30pm E 7 9 - - - - - - - 14.2 1003.4 0.4
24/03:00pm ESE 8 10 - - - - - - - 16.2 1003.0 0.4
24/02:30pm ESE 10 12 - - - - - - - 16.2 1003.0 0.4
24/02:00pm ESE 8 11 - - - - - - - 15.0 1003.0 0.4
24/01:30pm SE 10 13 - - - - - - - 14.9 1002.8 0.4
24/01:00pm SSE 13 16 - - - - - - - 14.9 1002.4 0.4
24/12:30pm SSE 14 17 - - - - - - - 14.2 1002.2 0.4
24/12:00pm SSE 15 17 - - - - - - - 14.5 1002.0 0.4
24/11:30am SSE 15 18 - - - - - - - 13.5 1001.8 0.4
24/11:00am SSE 12 15 - - - - - - - 13.3 1002.1 0.4
24/10:30am SSE 15 18 - - - - - - - 13.0 1001.7 0.4
24/10:00am SSE 16 19 - - - - - - - 12.7 1001.5 0.4
24/09:30am SSE 15 18 - - - - - - - 13.1 1001.3 0.0
24/09:00am S 11 14 - - - - - - - 13.5 1001.3 7.2
24/08:30am S 12 14 - - - - - - - 13.7 1001.0 7.2
24/08:00am SSW 11 13 - - - - - - - 13.8 1000.7 7.2
24/07:30am SW 6 7 - - - - - - - 13.8 1000.5 7.2
24/07:00am WSW 4 5 - - - - - - - 13.4 1000.3 7.0
24/06:30am WNW 3 4 - - - - - - - 13.2 1000.1 6.4
24/06:00am NW 1 4 - - - - - - Rain 13.3 1000.4 6.2
24/05:30am WNW 3 4 - - - - - - - 13.4 1000.6 6.0
24/05:00am WNW 5 6 - - - - - - - 13.5 1000.9 5.6
24/04:30am WNW 6 7 - - - - - - - 13.5 1001.0 5.0
24/04:00am WNW 5 6 - - - - - - - 13.5 1001.3 4.4
24/03:30am NW 5 6 - - - - - - - 13.4 1001.5 2.6
24/03:00am NW 5 6 - - - - - - Rain 13.4 1001.6 2.2
24/02:30am NNW 6 7 - - - - - - - 13.4 1002.0 1.6
24/02:00am NNW 6 7 - - - - - - - 13.4 1002.6 1.2
24/01:30am N 4 5 - - - - - - - 13.5 1003.1 1.2
24/01:00am NNW 5 6 - - - - - - - 13.6 1003.5 1.2
24/12:30am NW 4 5 - - - - - - - 13.7 1004.0 1.0
24/12:00am NNW 3 4 - - - - - - - 13.6 1004.4 0.8
 
Date/Time
EDT
Wind Sea
Height
m
Swell Vis
km
Cloud Weather Temp
°C
Press
MSL
hPa
Rain since
9am
mm
Dir  Spd
kts
Gust
kts
Height
m
Period
s
Dir
23/11:30pm WNW 5 6 - - - - - - - 13.7 1004.7 0.8
23/11:00pm NW 7 9 - - - - - - - 13.8 1005.1 0.8
23/10:30pm NNW 8 11 - - - - - - - 13.8 1005.6 0.8
23/10:00pm N 9 11 - - - - - - - 13.8 1005.9 0.8
23/09:30pm NNW 8 9 - - - - - - - 13.7 1006.4 0.8
23/09:00pm NNW 8 9 - - - - - - - 13.7 1006.3 0.8
23/08:30pm NNW 8 9 - - - - - - - 13.7 1006.3 0.8
23/08:00pm NNW 7 8 - - - - - - - 13.7 1006.1 0.8
23/07:30pm NNW 7 9 - - - - - - - 13.8 1006.2 0.8
23/07:00pm NW 5 7 - - - - - - - 13.7 1006.0 0.8
23/06:30pm N 6 8 - - - - - - - 13.9 1006.2 0.8
23/06:00pm NNW 7 8 - - - - - - Recent precip. 13.8 1006.5 0.8
23/05:30pm NNW 7 8 - - - - - - - 13.7 1006.7 0.8
23/05:00pm N 9 10 - - - - - - - 13.7 1006.7 0.6
23/04:30pm N 8 9 - - - - - - - 13.7 1007.1 0.6
23/04:00pm N 8 9 - - - - - - - 14.3 1007.2 0.6
23/03:30pm N 7 9 - - - - - - - 14.1 1007.9 0.6
23/03:00pm N 9 11 - - - - - - - 14.2 1008.5 0.6
23/02:30pm N 8 9 - - - - - - - 13.6 1008.7 0.6
23/02:00pm N 9 11 - - - - - - - 13.5 1008.5 0.6
23/01:30pm NNE 11 13 - - - - - - - 13.4 1008.9 0.6
23/01:00pm N 11 13 - - - - - - - 13.4 1009.6 0.6
23/12:30pm N 9 11 - - - - - - - 13.1 1009.9 0.2
23/12:00pm NNW 7 9 - - - - - - Rain 13.4 1010.0 0.2
23/11:30am N 8 9 - - - - - - - 13.7 1010.3 0.0
23/11:00am NNW 7 8 - - - - - - - 13.7 1010.8 0.0
23/10:30am NNW 7 9 - - - - - - - 13.6 1011.2 0.0
23/10:00am NNW 7 8 - - - - - - - 13.4 1011.4 0.0
23/09:30am NNW 5 6 - - - - - - - 12.8 1011.5 0.0
23/09:00am NNW 4 5 - - - - - - - 12.7 1011.7 0.0
23/08:30am NNW 3 4 - - - - - - - 12.6 1012.0 0.0
23/08:00am NW 2 3 - - - - - - - 12.0 1012.0 0.0
23/07:30am NNE 3 4 - - - - - - - 11.4 1012.0 0.0
23/07:00am NNE 3 4 - - - - - - - 11.2 1011.8 0.0
23/06:30am CALM 0 0 - - - - - - - 11.3 1011.5 0.0
23/06:00am CALM 0 0 - - - - - - - 11.1 1011.5 0.0
23/05:30am CALM 0 0 - - - - - - - 11.1 1011.4 0.0
23/05:00am SSW 3 3 - - - - - - - 10.7 1011.9 0.0
23/04:30am SSW 3 4 - - - - - - - 10.7 1011.8 0.0
23/04:00am S 4 4 - - - - - - - 10.8 1011.9 0.0
23/03:30am SSW 3 4 - - - - - - - 11.0 1012.4 0.0
23/03:00am SSW 4 5 - - - - - - - 10.9 1013.0 0.0
23/02:30am CALM 0 0 - - - - - - - 11.2 1013.3 0.0
23/02:00am NW 3 4 - - - - - - - 11.1 1014.0 0.0
23/01:30am NW 5 6 - - - - - - - 11.0 1014.3 0.0
23/01:00am NNW 6 7 - - - - - - - 11.1 1014.7 0.0
23/12:30am NNW 5 6 - - - - - - - 11.1 1015.1 0.0
23/12:00am N 6 7 - - - - - - - 11.5 1015.4 0.0
 
Date/Time
EDT
Wind Sea
Height
m
Swell Vis
km
Cloud Weather Temp
°C
Press
MSL
hPa
Rain since
9am
mm
Dir  Spd
kts
Gust
kts
Height
m
Period
s
Dir
22/11:30pm NNW 6 7 - - - - - - - 11.8 1015.7 0.0
22/11:00pm N 6 8 - - - - - - - 12.4 1016.0 0.0
22/10:30pm ESE 2 3 - - - - - - - 12.8 1016.1 0.0
22/10:00pm E 4 5 - - - - - - - 12.4 1016.1 0.0
22/09:30pm E 6 7 - - - - - - - 12.6 1015.9 0.0
22/09:00pm ESE 6 7 - - - - - - - 12.6 1015.9 0.0
22/08:30pm E 5 6 - - - - - - - 12.9 1015.6 0.0
22/08:00pm E 4 5 - - - - - - - 12.9 1016.0 0.0
22/07:30pm E 5 6 - - - - - - - 13.2 1015.9 0.0
22/07:00pm E 5 7 - - - - - - - 14.0 1015.6 0.0
22/06:30pm SE 4 6 - - - - - - - 14.4 1015.5 0.0
22/06:00pm SE 7 9 - - - - - - - 14.9 1015.6 0.0
22/05:30pm SE 8 10 - - - - - - - 15.2 1015.3 0.0
22/05:00pm SE 8 10 - - - - - - - 15.5 1015.3 0.0
22/04:30pm SSE 9 11 - - - - - - - 15.7 1015.4 0.0
22/04:00pm SSE 6 9 - - - - - - - 17.0 1015.6 0.0
22/03:30pm SSE 6 8 - - - - - - - 16.8 1015.6 0.0
22/03:00pm SE 7 8 - - - - - - - 16.7 1015.7 0.0
22/02:30pm SSE 11 14 - - - - - - - 16.2 1015.9 0.0
22/02:00pm SSE 10 13 - - - - - - - 17.1 1016.2 0.0
22/01:30pm S 12 14 - - - - - - - 17.2 1016.2 0.0
22/01:00pm S 11 13 - - - - - - - 17.2 1016.2 0.0
22/12:30pm S 8 9 - - - - - - - 17.4 1016.5 0.0
22/12:00pm SSE 10 11 - - - - - - - 15.8 1016.4 0.0
22/11:30am S 10 11 - - - - - - - 16.7 1016.8 0.0
22/11:00am S 9 11 - - - - - - - 16.4 1017.0 0.0
22/10:30am S 13 17 - - - - - - - 13.9 1016.9 0.0
22/10:00am S 16 18 - - - - - - - 13.7 1016.6 0.0
22/09:30am S 17 19 - - - - - - - 13.6 1016.6 0.0
22/09:00am S 15 17 - - - - - - - 13.9 1016.6 0.0
22/08:30am S 15 18 - - - - - - - 13.5 1016.3 0.0
22/08:00am SSE 15 17 - - - - - - - 13.7 1016.2 0.0
22/07:30am S 15 18 - - - - - - - 13.0 1016.1 0.0
22/07:00am S 16 19 - - - - - - - 12.2 1015.9 0.0
22/06:30am S 18 20 - - - - - - - 12.0 1015.2 0.0
22/06:00am S 17 20 - - - - - - - 11.8 1015.1 0.0
22/05:30am S 17 19 - - - - - - - 11.8 1015.0 0.0
22/05:00am S 15 18 - - - - - - - 11.8 1014.8 0.0

Other formats

Comma delimited format used in spreadsheet applications
http://www.bom.gov.au/fwo/IDT60701/IDT60701.94983.axf

JavaScript Object Notation format (JSON) in row-major order
http://www.bom.gov.au/fwo/IDT60701/IDT60701.94983.json

Data quality

Most of these data are generated automatically and are frequently updated. Quality checks on data are not normally performed. It is possible for incorrect values to appear. Refer to information at About Latest Weather Observations and please check the disclaimer before using these data.